Time;durP1;ratioP1;P1;durP2;ratioP2;P2;SDS_P1;SDS_P2;PMS_P1;PMS_P2;Temp;Humidity;BMP_temperature;BMP_pressure;BME280_temperature;BME280_humidity;BME280_pressure;Samples;Min_cycle;Max_cycle;Signal;HPM_P1;HPM_P2
2023/12/13 00:01:26;;;;;;;1.67;1.37;;;10.00;1.00;;;;;;5007362;28;20207;-73
2023/12/13 00:03:53;;;;;;;1.60;1.27;;;10.10;1.00;;;;;;5010157;28;20248;-73
2023/12/13 00:06:19;;;;;;;2.90;1.60;;;10.00;1.00;;;;;;5006164;28;20421;-73
2023/12/13 00:08:45;;;;;;;2.93;1.40;;;10.10;1.00;;;;;;4998240;28;20484;-73
2023/12/13 00:11:10;;;;;;;2.70;1.30;;;10.00;1.00;;;;;;5008908;28;20975;-72
2023/12/13 00:13:36;;;;;;;1.60;1.30;;;10.00;1.00;;;;;;5001748;28;20214;-73
2023/12/13 00:16:02;;;;;;;1.37;1.03;;;9.90;1.00;;;;;;5005650;28;20252;-73
2023/12/13 00:18:28;;;;;;;4.37;1.20;;;10.00;1.00;;;;;;4999320;28;20523;-72
2023/12/13 00:20:54;;;;;;;1.77;1.37;;;9.90;1.00;;;;;;5009373;28;20446;-74
2023/12/13 00:23:19;;;;;;;1.70;1.40;;;9.90;1.00;;;;;;5009715;28;20433;-72
2023/12/13 00:25:45;;;;;;;3.40;1.20;;;;;;;;;;5009229;28;20328;-72
2023/12/13 00:28:11;;;;;;;1.77;1.10;;;9.90;1.00;;;;;;5002582;28;20676;-71
2023/12/13 00:30:36;;;;;;;9.13;1.60;;;9.90;1.00;;;;;;5009805;28;20289;-73
2023/12/13 00:33:02;;;;;;;2.33;1.50;;;9.90;1.00;;;;;;5010625;28;20677;-74
2023/12/13 00:35:28;;;;;;;2.27;1.30;;;;;;;;;;5002949;28;20193;-73
2023/12/13 00:37:57;;;;;;;4.50;1.20;;;9.90;1.00;;;;;;5002345;28;20182;-72
2023/12/13 00:40:22;;;;;;;3.83;1.57;;;9.80;1.00;;;;;;5007272;28;20289;-71
2023/12/13 00:42:50;;;;;;;2.20;1.47;;;9.80;1.00;;;;;;5007484;28;20956;-71
2023/12/13 00:45:16;;;;;;;3.73;1.37;;;9.90;1.00;;;;;;4999273;28;20179;-73
2023/12/13 00:47:42;;;;;;;4.80;1.30;;;9.90;1.00;;;;;;4993339;28;20445;-73
2023/12/13 00:50:08;;;;;;;5.43;1.40;;;9.90;1.00;;;;;;4993474;28;20703;-73
2023/12/13 00:52:35;;;;;;;4.67;1.60;;;9.90;1.00;;;;;;5003420;28;20519;-73
2023/12/13 00:55:01;;;;;;;3.40;1.40;;;9.90;1.00;;;;;;4995256;28;20468;-73
2023/12/13 00:57:27;;;;;;;2.73;1.10;;;9.90;1.00;;;;;;5002408;28;20421;-73
2023/12/13 00:59:52;;;;;;;3.50;1.50;;;9.80;1.00;;;;;;5002654;28;20558;-73
2023/12/13 01:02:18;;;;;;;2.00;1.40;;;9.80;1.00;;;;;;5004507;28;20440;-73
2023/12/13 01:04:44;;;;;;;2.10;1.43;;;9.70;1.00;;;;;;5001748;28;20194;-73
2023/12/13 01:07:10;;;;;;;2.17;1.13;;;9.70;1.00;;;;;;4999634;28;20190;-74
2023/12/13 01:09:36;;;;;;;1.70;1.10;;;9.60;1.00;;;;;;4998483;28;20453;-74
2023/12/13 01:12:02;;;;;;;2.60;1.30;;;9.60;1.00;;;;;;5006774;28;20633;-71
2023/12/13 01:14:27;;;;;;;3.27;1.30;;;9.50;1.00;;;;;;5005221;28;20228;-73
2023/12/13 01:16:53;;;;;;;3.50;1.50;;;9.50;1.00;;;;;;5009948;28;20517;-73
2023/12/13 01:19:18;;;;;;;3.00;1.27;;;9.40;1.00;;;;;;4990647;28;20283;-73
2023/12/13 01:21:44;;;;;;;3.17;1.50;;;9.40;1.00;;;;;;4998789;28;20249;-72
2023/12/13 01:24:09;;;;;;;2.67;1.43;;;9.40;1.00;;;;;;5005336;28;20182;-73
2023/12/13 01:26:35;;;;;;;2.47;1.20;;;9.40;1.00;;;;;;5006750;28;20187;-73
2023/12/13 01:29:00;;;;;;;6.47;1.47;;;9.40;1.00;;;;;;4987748;28;20205;-73
2023/12/13 01:31:26;;;;;;;4.33;1.20;;;9.40;1.00;;;;;;4988733;28;20398;-74
2023/12/13 01:33:51;;;;;;;3.77;1.47;;;9.20;1.00;;;;;;4989887;28;20207;-73
2023/12/13 01:36:17;;;;;;;4.57;1.70;;;9.40;1.00;;;;;;4990082;28;20191;-76
2023/12/13 01:38:42;;;;;;;6.20;1.13;;;9.40;1.00;;;;;;4984520;28;20262;-73
2023/12/13 01:41:08;;;;;;;1.70;1.20;;;9.40;1.00;;;;;;4989202;28;20207;-74
2023/12/13 01:43:33;;;;;;;5.27;1.50;;;9.40;1.00;;;;;;4996731;28;20187;-73
2023/12/13 01:45:59;;;;;;;2.30;1.40;;;9.40;1.00;;;;;;4992039;28;21606;-73
2023/12/13 01:48:26;;;;;;;1.27;1.00;;;9.40;1.00;;;;;;5001190;28;20469;-73
2023/12/13 01:50:56;;;;;;;1.57;1.00;;;9.30;1.00;;;;;;4991962;28;20211;-74
2023/12/13 01:53:25;;;;;;;2.50;1.20;;;9.30;1.00;;;;;;4995427;28;20461;-74
2023/12/13 01:55:52;;;;;;;2.93;1.30;;;9.30;1.00;;;;;;5009663;28;20453;-72
2023/12/13 01:58:19;;;;;;;1.60;1.20;;;9.30;1.00;;;;;;5001660;28;20828;-74
2023/12/13 02:00:45;;;;;;;1.97;0.93;;;9.10;1.00;;;;;;4999061;28;20829;-73
2023/12/13 02:03:12;;;;;;;1.40;1.07;;;9.30;1.00;;;;;;5008530;28;20430;-72
2023/12/13 02:05:39;;;;;;;2.83;1.20;;;9.30;1.00;;;;;;5006822;28;20433;-72
2023/12/13 02:08:06;;;;;;;1.87;1.10;;;9.30;1.00;;;;;;5009052;28;20429;-73
2023/12/13 02:10:32;;;;;;;3.60;1.20;;;;;;;;;;5002833;28;20975;-73
2023/12/13 02:12:58;;;;;;;2.97;1.13;;;9.30;1.00;;;;;;4996656;28;20514;-72
2023/12/13 02:15:24;;;;;;;1.40;1.10;;;9.30;1.00;;;;;;5006056;28;20855;-73
2023/12/13 02:17:53;;;;;;;3.53;1.10;;;9.30;1.00;;;;;;4999864;28;20183;-71
2023/12/13 02:20:19;;;;;;;6.13;1.27;;;9.30;1.00;;;;;;4998840;28;20202;-73
2023/12/13 02:22:44;;;;;;;6.60;1.20;;;9.30;1.00;;;;;;4990861;28;20862;-73
2023/12/13 02:25:25;;;;;;;1.20;1.00;;;9.30;1.00;;;;;;5008474;28;20459;-74
2023/12/13 02:27:51;;;;;;;2.27;0.93;;;9.30;1.00;;;;;;4998485;28;20198;-71
2023/12/13 02:30:17;;;;;;;2.07;0.90;;;9.30;1.00;;;;;;4990458;28;21001;-71
2023/12/13 02:32:42;;;;;;;5.13;1.10;;;9.30;1.00;;;;;;4998635;28;20425;-73
2023/12/13 02:35:08;;;;;;;2.30;0.80;;;9.30;1.00;;;;;;5001783;28;20703;-71
2023/12/13 02:37:34;;;;;;;2.47;1.10;;;9.40;1.00;;;;;;5007703;28;20186;-73
2023/12/13 02:39:59;;;;;;;4.07;1.40;;;9.30;1.00;;;;;;5000394;28;20253;-72
2023/12/13 02:42:25;;;;;;;2.90;1.20;;;9.30;1.00;;;;;;4999426;28;20259;-73
2023/12/13 02:44:51;;;;;;;1.60;0.97;;;9.30;1.00;;;;;;4997577;28;20648;-74
2023/12/13 02:47:16;;;;;;;1.10;0.80;;;9.30;1.00;;;;;;4988724;28;20186;-72
2023/12/13 02:49:42;;;;;;;1.10;0.83;;;9.30;1.00;;;;;;4989237;28;20454;-73
2023/12/13 02:52:07;;;;;;;1.10;0.80;;;9.30;1.00;;;;;;4993304;28;20622;-72
2023/12/13 02:54:33;;;;;;;1.10;0.90;;;9.30;1.00;;;;;;5003086;28;20721;-73
2023/12/13 02:56:58;;;;;;;3.10;0.97;;;9.00;1.00;;;;;;5006007;28;20245;-73
2023/12/13 02:59:24;;;;;;;1.40;0.90;;;9.20;1.00;;;;;;5001862;28;20430;-73
2023/12/13 03:01:49;;;;;;;1.00;0.87;;;9.20;1.00;;;;;;4998933;28;20190;-72
2023/12/13 03:04:15;;;;;;;1.27;0.90;;;9.20;1.00;;;;;;5002079;28;20514;-73
2023/12/13 03:06:40;;;;;;;2.63;1.10;;;9.30;1.00;;;;;;5001351;28;20205;-73
2023/12/13 03:09:06;;;;;;;1.40;1.00;;;9.20;1.00;;;;;;4998869;28;20194;-73
2023/12/13 03:11:31;;;;;;;1.73;1.00;;;9.20;1.00;;;;;;5004409;28;20221;-72
2023/12/13 03:13:57;;;;;;;3.67;1.47;;;9.20;1.00;;;;;;5006794;28;20604;-73
2023/12/13 03:16:24;;;;;;;1.30;1.10;;;9.20;1.00;;;;;;5003870;28;20206;-73
2023/12/13 03:18:50;;;;;;;3.33;1.20;;;9.20;1.00;;;;;;5001717;28;20287;-73
2023/12/13 03:21:15;;;;;;;3.13;1.10;;;9.20;1.00;;;;;;4995297;28;21014;-72
2023/12/13 03:23:41;;;;;;;3.60;1.10;;;9.20;1.00;;;;;;4992727;28;20187;-73
2023/12/13 03:26:06;;;;;;;3.37;1.13;;;9.20;1.00;;;;;;4998403;28;20651;-73
2023/12/13 03:28:32;;;;;;;1.50;1.10;;;9.20;1.00;;;;;;5002730;28;20182;-73
2023/12/13 03:30:57;;;;;;;4.37;1.30;;;9.20;1.00;;;;;;5005926;28;20276;-72
2023/12/13 03:33:23;;;;;;;1.43;0.83;;;9.20;1.00;;;;;;4999391;28;20213;-74
2023/12/13 03:35:48;;;;;;;2.70;0.90;;;9.20;1.00;;;;;;5005960;28;20174;-72
2023/12/13 03:38:14;;;;;;;5.57;1.27;;;9.20;1.00;;;;;;5012050;28;20724;-72
2023/12/13 03:40:40;;;;;;;1.10;0.90;;;9.20;1.00;;;;;;5006615;28;20557;-73
2023/12/13 03:43:06;;;;;;;2.13;1.03;;;9.20;1.00;;;;;;5011142;28;20217;-72
2023/12/13 03:45:32;;;;;;;2.50;1.10;;;9.20;1.00;;;;;;5003823;28;20436;-73
2023/12/13 03:47:57;;;;;;;1.80;1.03;;;9.20;1.00;;;;;;5003027;28;20195;-71
2023/12/13 03:50:23;;;;;;;1.10;0.80;;;9.20;1.00;;;;;;5003254;28;20213;-72
2023/12/13 03:52:48;;;;;;;1.80;0.90;;;9.20;1.00;;;;;;5009325;28;20242;-72
2023/12/13 03:55:14;;;;;;;9.63;1.20;;;9.20;1.00;;;;;;5001396;28;20501;-71
2023/12/13 03:57:40;;;;;;;1.63;0.90;;;9.20;1.00;;;;;;5000937;28;20673;-73
2023/12/13 04:00:06;;;;;;;1.40;0.90;;;9.20;1.00;;;;;;5003365;28;20441;-74
2023/12/13 04:02:32;;;;;;;1.93;1.20;;;9.20;1.00;;;;;;5011737;28;20190;-74
2023/12/13 04:04:57;;;;;;;4.03;1.07;;;9.20;1.00;;;;;;5001240;28;20526;-72
2023/12/13 04:07:23;;;;;;;1.47;0.90;;;9.20;1.00;;;;;;4999949;28;20265;-72
2023/12/13 04:09:48;;;;;;;3.53;1.10;;;9.20;1.00;;;;;;5003993;28;20210;-73
2023/12/13 04:12:14;;;;;;;5.37;1.20;;;9.30;1.00;;;;;;4993488;28;20187;-74
2023/12/13 04:14:40;;;;;;;3.23;1.27;;;9.30;1.00;;;;;;5004595;28;20211;-72
2023/12/13 04:17:05;;;;;;;4.20;1.10;;;9.20;1.00;;;;;;5002178;28;20190;-71
2023/12/13 04:19:31;;;;;;;1.00;0.83;;;9.20;1.00;;;;;;4995910;28;20793;-74
2023/12/13 04:21:56;;;;;;;1.70;1.30;;;9.20;1.00;;;;;;5001184;28;20190;-73
2023/12/13 04:24:22;;;;;;;1.57;1.00;;;9.20;1.00;;;;;;5009572;28;20197;-73
2023/12/13 04:26:47;;;;;;;4.53;1.03;;;9.20;1.00;;;;;;5002487;28;20202;-73
2023/12/13 04:29:13;;;;;;;3.70;1.30;;;9.20;1.00;;;;;;5010706;28;20218;-73
2023/12/13 04:31:40;;;;;;;4.93;2.20;;;9.20;1.00;;;;;;5003364;28;20475;-74
2023/12/13 04:34:05;;;;;;;3.13;1.10;;;9.30;1.00;;;;;;4996725;28;20210;-72
2023/12/13 04:36:31;;;;;;;1.80;1.10;;;9.30;1.00;;;;;;5007809;28;20423;-73
2023/12/13 04:38:57;;;;;;;4.50;1.37;;;9.30;1.00;;;;;;5007067;28;20699;-72
2023/12/13 04:41:23;;;;;;;2.50;1.50;;;9.30;1.00;;;;;;5002170;28;20276;-73
2023/12/13 04:43:48;;;;;;;2.33;1.10;;;9.10;1.00;;;;;;4997664;28;20481;-71
2023/12/13 04:46:14;;;;;;;1.30;1.00;;;9.70;1.00;;;;;;5004766;28;20190;-73
2023/12/13 04:48:39;;;;;;;1.83;1.23;;;9.10;1.00;;;;;;4996881;28;20183;-72
2023/12/13 04:51:05;;;;;;;1.87;1.37;;;9.20;1.00;;;;;;4999161;28;20210;-72
2023/12/13 04:53:31;;;;;;;3.33;1.20;;;9.10;1.00;;;;;;5006186;28;20216;-72
2023/12/13 04:55:56;;;;;;;5.33;2.03;;;9.10;1.00;;;;;;5002156;28;20190;-73
2023/12/13 04:58:22;;;;;;;3.70;1.70;;;9.10;1.00;;;;;;5007055;28;20294;-73
2023/12/13 05:00:48;;;;;;;2.70;1.53;;;9.20;1.00;;;;;;5004190;28;20210;-72
2023/12/13 05:03:14;;;;;;;7.23;3.27;;;9.30;1.00;;;;;;4992707;28;20207;-72
2023/12/13 05:05:40;;;;;;;11.50;4.27;;;9.30;1.00;;;;;;5001030;28;20457;-72
2023/12/13 05:08:11;;;;;;;11.50;4.67;;;9.30;1.00;;;;;;5010145;28;20186;-73
2023/12/13 05:10:40;;;;;;;6.97;2.13;;;9.30;1.00;;;;;;5002592;28;20230;-74
2023/12/13 05:13:07;;;;;;;4.53;2.20;;;9.30;1.00;;;;;;5006691;28;20520;-75
2023/12/13 05:15:32;;;;;;;3.23;1.50;;;9.30;1.00;;;;;;5007492;28;20414;-74
2023/12/13 05:17:58;;;;;;;1.80;1.50;;;9.40;1.00;;;;;;4999247;28;20744;-74
2023/12/13 05:20:23;;;;;;;2.07;1.40;;;9.30;1.00;;;;;;4989686;28;20202;-75
2023/12/13 05:22:49;;;;;;;2.73;1.20;;;9.40;1.00;;;;;;4997080;28;20186;-74
2023/12/13 05:25:14;;;;;;;1.70;1.13;;;9.30;1.00;;;;;;5003121;28;20234;-73
2023/12/13 05:27:42;;;;;;;1.90;1.20;;;9.40;1.00;;;;;;5003107;28;20186;-74
2023/12/13 05:30:08;;;;;;;5.00;1.20;;;9.40;1.00;;;;;;5007662;28;20419;-74
2023/12/13 05:32:33;;;;;;;4.20;1.10;;;9.50;1.00;;;;;;5006248;28;20771;-74
2023/12/13 05:34:59;;;;;;;1.90;1.20;;;9.60;1.00;;;;;;4999256;28;20279;-74
2023/12/13 05:37:24;;;;;;;3.43;1.63;;;9.60;1.00;;;;;;5009419;28;20190;-74
2023/12/13 05:39:50;;;;;;;2.27;1.53;;;9.60;1.00;;;;;;5009052;28;20210;-75
2023/12/13 05:42:16;;;;;;;5.40;1.87;;;9.60;1.00;;;;;;4998825;28;20186;-74
2023/12/13 05:44:41;;;;;;;4.00;1.50;;;9.60;1.00;;;;;;5010137;28;20209;-74
2023/12/13 05:47:06;;;;;;;1.90;1.20;;;9.60;1.00;;;;;;5006333;28;20205;-74
2023/12/13 05:49:32;;;;;;;3.70;1.53;;;9.50;1.00;;;;;;4989998;28;20598;-74
2023/12/13 05:51:57;;;;;;;3.10;1.20;;;7.60;1.00;;;;;;4992074;28;20219;-74
2023/12/13 05:54:23;;;;;;;5.63;1.73;;;9.40;1.00;;;;;;5002548;28;20220;-74
2023/12/13 05:56:48;;;;;;;9.23;1.47;;;9.40;1.00;;;;;;5007060;28;20195;-73
2023/12/13 05:59:14;;;;;;;2.77;1.27;;;11.40;1.00;;;;;;5006649;28;20207;-74
2023/12/13 06:01:39;;;;;;;2.70;1.30;;;9.20;1.00;;;;;;4996493;28;20192;-72
2023/12/13 06:04:05;;;;;;;2.20;1.40;;;9.30;1.00;;;;;;4997955;28;20189;-74
2023/12/13 06:06:31;;;;;;;3.10;1.40;;;9.30;1.00;;;;;;5008675;28;20183;-73
2023/12/13 06:08:56;;;;;;;1.60;1.43;;;9.20;1.00;;;;;;5002187;28;20190;-73
2023/12/13 06:11:22;;;;;;;6.30;1.90;;;9.20;1.00;;;;;;5000677;28;20580;-73
2023/12/13 06:13:47;;;;;;;3.37;1.50;;;9.10;1.00;;;;;;5003081;28;20653;-74
2023/12/13 06:16:13;;;;;;;3.87;1.50;;;9.10;1.00;;;;;;4993627;28;20187;-74
2023/12/13 06:18:39;;;;;;;2.07;1.40;;;9.00;1.00;;;;;;4996164;28;20554;-74
2023/12/13 06:21:07;;;;;;;1.87;1.40;;;9.00;1.00;;;;;;4996567;28;20203;-74
2023/12/13 06:23:32;;;;;;;3.80;1.90;;;9.00;1.00;;;;;;4996623;28;20477;-75
2023/12/13 06:25:58;;;;;;;3.80;1.60;;;8.90;1.00;;;;;;4992745;28;20442;-74
2023/12/13 06:28:23;;;;;;;5.30;2.27;;;8.90;1.00;;;;;;4999879;28;20215;-73
2023/12/13 06:30:49;;;;;;;5.83;3.07;;;9.00;1.00;;;;;;4990394;28;20281;-74
2023/12/13 06:33:17;;;;;;;2.60;1.93;;;9.10;1.00;;;;;;4995596;28;20682;-75
2023/12/13 06:35:42;;;;;;;5.23;2.00;;;9.00;1.00;;;;;;5009624;28;20186;-75
2023/12/13 06:38:08;;;;;;;4.30;2.37;;;9.00;1.00;;;;;;4993279;28;20805;-73
2023/12/13 06:40:33;;;;;;;4.57;2.20;;;9.10;1.00;;;;;;4988722;28;20207;-74
2023/12/13 06:42:59;;;;;;;6.47;2.10;;;9.10;1.00;;;;;;4995471;28;20216;-74
2023/12/13 06:45:24;;;;;;;3.97;2.33;;;9.00;1.00;;;;;;5001185;28;20190;-74
2023/12/13 06:47:51;;;;;;;5.30;2.60;;;9.10;1.00;;;;;;5000589;28;20594;-75
2023/12/13 06:50:17;;;;;;;7.40;2.53;;;9.20;1.00;;;;;;4998979;28;20195;-74
2023/12/13 06:52:43;;;;;;;3.20;1.80;;;9.20;1.00;;;;;;5006739;28;21022;-74
2023/12/13 06:55:09;;;;;;;4.30;2.17;;;9.20;1.00;;;;;;5010966;28;20293;-76
2023/12/13 06:57:35;;;;;;;2.90;2.17;;;9.10;1.00;;;;;;4994201;28;20666;-74
2023/12/13 07:00:02;;;;;;;5.57;3.10;;;9.20;1.00;;;;;;5002981;28;20281;-74
2023/12/13 07:02:27;;;;;;;11.13;5.43;;;9.20;1.00;;;;;;5010243;28;20179;-74
2023/12/13 07:04:53;;;;;;;24.40;10.37;;;9.20;1.00;;;;;;4997539;28;20439;-74
2023/12/13 07:07:18;;;;;;;15.80;8.30;;;9.20;1.00;;;;;;5001539;28;20519;-74
2023/12/13 07:09:44;;;;;;;13.80;5.70;;;9.10;1.00;;;;;;5005755;28;20232;-75
2023/12/13 07:12:10;;;;;;;11.97;3.67;;;9.20;1.00;;;;;;4978832;28;20237;-73
2023/12/13 07:14:35;;;;;;;7.63;2.87;;;9.20;1.00;;;;;;4988855;28;20959;-73
2023/12/13 07:17:01;;;;;;;6.23;2.57;;;9.10;1.00;;;;;;4989130;28;20595;-74
2023/12/13 07:19:27;;;;;;;6.43;2.83;;;9.20;1.00;;;;;;4987040;28;20624;-71
2023/12/13 07:21:52;;;;;;;4.67;3.30;;;9.20;1.00;;;;;;4993414;28;20414;-71
2023/12/13 07:24:18;;;;;;;5.30;2.53;;;9.20;1.00;;;;;;4999364;28;20495;-71
2023/12/13 07:26:43;;;;;;;7.07;3.20;;;9.20;1.00;;;;;;4992977;28;20191;-73
2023/12/13 07:29:09;;;;;;;8.13;4.10;;;;;;;;;;4991654;28;20258;-73
2023/12/13 07:31:39;;;;;;;4.50;2.73;;;9.10;1.00;;;;;;4999524;28;20302;-72
2023/12/13 07:34:05;;;;;;;2.67;1.60;;;9.10;1.00;;;;;;4997692;28;20712;-71
2023/12/13 07:36:31;;;;;;;3.70;1.70;;;9.10;1.00;;;;;;4991882;28;20414;-74
2023/12/13 07:38:56;;;;;;;3.30;2.27;;;9.20;1.00;;;;;;4996769;28;20429;-76
2023/12/13 07:41:22;;;;;;;2.37;1.70;;;9.30;1.00;;;;;;5000362;28;20674;-73
2023/12/13 07:43:48;;;;;;;6.07;1.97;;;9.40;1.00;;;;;;4997212;28;20610;-72
2023/12/13 07:46:14;;;;;;;3.40;1.73;;;9.40;1.00;;;;;;4989894;28;20629;-73
2023/12/13 07:48:41;;;;;;;2.53;1.87;;;9.40;1.00;;;;;;4991825;28;20430;-72
2023/12/13 07:51:07;;;;;;;4.00;2.20;;;9.40;1.00;;;;;;4991228;28;20416;-71
2023/12/13 07:53:32;;;;;;;3.40;1.80;;;9.40;1.00;;;;;;4991425;28;20837;-71
2023/12/13 07:55:58;;;;;;;2.70;2.00;;;9.50;1.00;;;;;;5024563;23;20301;-74
2023/12/13 07:58:23;;;;;;;8.57;1.70;;;9.50;1.00;;;;;;5002748;28;20626;-75
2023/12/13 08:00:49;;;;;;;3.33;1.90;;;9.50;1.00;;;;;;5003793;28;20422;-74
2023/12/13 08:03:14;;;;;;;3.00;2.07;;;9.50;1.00;;;;;;5005025;28;20610;-74
2023/12/13 08:05:40;;;;;;;5.90;2.23;;;9.60;1.00;;;;;;5003870;28;21274;-75
2023/12/13 08:08:05;;;;;;;3.13;1.90;;;9.70;1.00;;;;;;5009643;28;20673;-76
2023/12/13 08:10:31;;;;;;;2.90;1.70;;;9.70;1.00;;;;;;5010134;28;20641;-74
2023/12/13 08:12:56;;;;;;;3.70;1.67;;;9.80;1.00;;;;;;5010286;28;20187;-74
2023/12/13 08:15:22;;;;;;;2.43;1.50;;;9.80;1.00;;;;;;5009506;28;20245;-74
2023/12/13 08:17:47;;;;;;;6.90;1.63;;;9.80;1.00;;;;;;5008776;28;20178;-77
2023/12/13 08:20:13;;;;;;;3.30;1.33;;;9.80;1.00;;;;;;5009631;28;20237;-75
2023/12/13 08:22:39;;;;;;;7.00;1.73;;;9.70;1.00;;;;;;5008905;28;20241;-76
2023/12/13 08:25:05;;;;;;;2.67;1.40;;;9.60;1.00;;;;;;5006533;28;20481;-77
2023/12/13 08:27:30;;;;;;;2.00;1.70;;;9.50;1.00;;;;;;5004518;28;20179;-77
2023/12/13 08:29:56;;;;;;;3.73;1.47;;;9.40;1.00;;;;;;5010964;28;20928;-76
2023/12/13 08:32:21;;;;;;;2.23;1.87;;;9.30;1.00;;;;;;5011396;28;20182;-76
2023/12/13 08:34:48;;;;;;;2.43;1.23;;;9.30;1.00;;;;;;5009578;28;20206;-76
2023/12/13 08:37:14;;;;;;;6.10;1.47;;;9.20;1.00;;;;;;5002935;28;20175;-76
2023/12/13 08:39:40;;;;;;;2.10;1.40;;;9.20;1.00;;;;;;5003130;28;20431;-75
2023/12/13 08:42:06;;;;;;;3.03;1.50;;;9.20;1.00;;;;;;5008548;28;20437;-75
2023/12/13 08:44:32;;;;;;;2.70;1.40;;;9.30;1.00;;;;;;5010419;28;20969;-76
2023/12/13 08:46:58;;;;;;;4.63;1.40;;;9.20;1.00;;;;;;5009792;28;20167;-75
2023/12/13 08:49:23;;;;;;;3.23;1.57;;;9.20;1.00;;;;;;5008314;28;20483;-77
2023/12/13 08:51:50;;;;;;;4.93;1.70;;;9.20;1.00;;;;;;5009310;28;20178;-76
2023/12/13 08:54:15;;;;;;;2.97;1.40;;;9.30;1.00;;;;;;5011403;28;20199;-76
2023/12/13 08:56:41;;;;;;;3.97;1.53;;;9.20;1.00;;;;;;5009670;28;20703;-77
2023/12/13 08:59:06;;;;;;;3.77;1.73;;;9.20;1.00;;;;;;5008856;28;20266;-77
2023/12/13 09:01:32;;;;;;;10.03;1.60;;;9.20;1.00;;;;;;5009392;28;20549;-76
2023/12/13 09:03:57;;;;;;;2.70;1.50;;;9.10;1.00;;;;;;5007800;28;20298;-76
2023/12/13 09:06:23;;;;;;;3.63;1.60;;;9.10;1.00;;;;;;5009729;28;20703;-76
2023/12/13 09:08:49;;;;;;;2.87;1.63;;;9.20;1.00;;;;;;5008797;28;20186;-76
2023/12/13 09:11:14;;;;;;;2.30;1.50;;;9.20;1.00;;;;;;5010664;28;20348;-75
2023/12/13 09:13:40;;;;;;;4.17;1.70;;;9.30;1.00;;;;;;5001527;28;20203;-77
2023/12/13 09:16:05;;;;;;;1.63;1.30;;;9.40;1.00;;;;;;5007020;28;20203;-76
2023/12/13 09:18:31;;;;;;;5.83;1.50;;;9.40;1.00;;;;;;5005031;28;20318;-76
2023/12/13 09:20:57;;;;;;;1.83;1.30;;;9.50;1.00;;;;;;5010076;28;20669;-76
2023/12/13 09:23:24;;;;;;;3.20;1.73;;;9.70;1.00;;;;;;5008134;28;20186;-76
2023/12/13 09:25:49;;;;;;;5.90;1.73;;;9.90;1.00;;;;;;5004304;28;20236;-75
2023/12/13 09:28:15;;;;;;;5.33;1.77;;;10.30;1.00;;;;;;4996500;28;20500;-76
2023/12/13 09:30:42;;;;;;;5.40;1.50;;;11.10;1.00;;;;;;5008179;28;20626;-76
2023/12/13 09:33:07;;;;;;;3.20;1.40;;;11.30;1.00;;;;;;5004906;28;20197;-76
2023/12/13 09:35:33;;;;;;;2.17;1.57;;;11.30;1.00;;;;;;5008216;28;20520;-76
2023/12/13 09:37:58;;;;;;;2.30;1.30;;;11.20;1.00;;;;;;5009336;28;20216;-75
2023/12/13 09:40:24;;;;;;;5.00;1.30;;;11.60;1.00;;;;;;5010129;28;20562;-76
2023/12/13 09:42:51;;;;;;;2.30;1.47;;;11.80;1.00;;;;;;5009664;28;20208;-76
2023/12/13 09:45:21;;;;;;;4.33;1.30;;;11.70;1.00;;;;;;5008808;28;20958;-76
2023/12/13 09:47:49;;;;;;;3.10;1.40;;;11.60;1.00;;;;;;5008368;28;20971;-74
2023/12/13 09:50:15;;;;;;;3.40;1.73;;;12.50;1.00;;;;;;5008764;28;20433;-76
2023/12/13 09:52:42;;;;;;;4.10;1.77;;;14.90;1.00;;;;;;5009735;28;20436;-76
2023/12/13 09:55:08;;;;;;;2.77;1.50;;;16.90;1.00;;;;;;5009133;28;20994;-76
2023/12/13 09:57:34;;;;;;;1.80;1.40;;;18.40;1.00;;;;;;5008884;28;20520;-77
2023/12/13 10:00:00;;;;;;;2.80;1.63;;;20.20;1.00;;;;;;5010199;28;20596;-77
2023/12/13 10:02:26;;;;;;;3.10;1.60;;;20.30;1.00;;;;;;5002982;28;20182;-77
2023/12/13 10:04:52;;;;;;;3.10;1.63;;;20.70;1.00;;;;;;5007742;28;20755;-77
2023/12/13 10:07:18;;;;;;;3.30;1.70;;;21.40;1.00;;;;;;5008658;28;20520;-77
2023/12/13 10:09:47;;;;;;;3.40;1.60;;;22.10;1.00;;;;;;5009666;28;20596;-77
2023/12/13 10:12:12;;;;;;;3.87;1.50;;;23.40;1.00;;;;;;5009434;28;20182;-78
2023/12/13 10:14:38;;;;;;;4.40;1.70;;;23.20;1.00;;;;;;5008204;28;21012;-78
2023/12/13 10:17:04;;;;;;;3.70;1.70;;;21.80;1.00;;;;;;5008266;28;20178;-77
2023/12/13 10:19:32;;;;;;;7.23;1.93;;;20.60;1.00;;;;;;5009579;28;20178;-78
2023/12/13 10:21:57;;;;;;;3.80;1.60;;;21.10;1.00;;;;;;5009164;28;20756;-77
2023/12/13 10:24:24;;;;;;;3.63;1.60;;;22.10;1.00;;;;;;5009031;28;20421;-78
2023/12/13 10:26:50;;;;;;;4.53;1.50;;;22.00;1.00;;;;;;5007316;28;20541;-77
2023/12/13 10:29:18;;;;;;;6.10;1.90;;;21.00;1.00;;;;;;5007855;28;20515;-77
2023/12/13 10:31:47;;;;;;;2.70;1.47;;;20.40;1.00;;;;;;5008338;28;20429;-77
2023/12/13 10:34:13;;;;;;;3.30;1.57;;;21.00;1.00;;;;;;5004099;28;20492;-76
2023/12/13 10:36:38;;;;;;;4.80;1.77;;;22.40;1.00;;;;;;5006691;28;20967;-75
2023/12/13 10:39:07;;;;;;;3.17;1.53;;;23.20;1.00;;;;;;5007856;28;20673;-77
2023/12/13 10:41:34;;;;;;;6.23;1.77;;;21.10;1.00;;;;;;5008176;28;20185;-77
2023/12/13 10:44:02;;;;;;;9.53;1.83;;;18.90;1.00;;;;;;5003667;28;20433;-78
2023/12/13 10:46:33;;;;;;;4.17;2.00;;;18.70;1.00;;;;;;5000335;28;20548;-77
2023/12/13 10:48:59;;;;;;;4.93;1.80;;;20.80;1.00;;;;;;5007905;28;20471;-78
2023/12/13 10:51:26;;;;;;;2.60;1.30;;;23.20;1.00;;;;;;5009200;28;20429;-78
2023/12/13 10:53:52;;;;;;;3.10;1.60;;;25.40;1.00;;;;;;5006052;28;20470;-78
2023/12/13 10:56:19;;;;;;;2.60;1.40;;;26.70;1.00;;;;;;5006981;28;20518;-78
2023/12/13 10:58:44;;;;;;;3.03;1.60;;;27.50;1.00;;;;;;5007334;28;20192;-80
2023/12/13 11:01:12;;;;;;;4.03;1.50;;;26.00;1.00;;;;;;5005467;28;20433;-78
2023/12/13 11:03:49;;;;;;;7.33;1.63;;;24.80;1.00;;;;;;5007430;28;20209;-77
2023/12/13 11:06:16;;;;;;;3.53;1.57;;;24.60;1.00;;;;;;5003260;28;20490;-78
2023/12/13 11:08:43;;;;;;;3.10;1.70;;;23.50;1.00;;;;;;5007427;28;20773;-78
2023/12/13 11:11:14;;;;;;;2.90;1.70;;;22.10;1.00;;;;;;5008627;28;20978;-77
2023/12/13 11:13:50;;;;;;;3.30;1.67;;;20.50;1.00;;;;;;5001457;28;20476;-78
2023/12/13 11:16:22;;;;;;;8.10;1.90;;;18.20;1.00;;;;;;5002853;28;20453;-80
2023/12/13 11:18:52;;;;;;;4.30;1.70;;;16.50;1.00;;;;;;5006825;28;20955;-77
2023/12/13 11:21:25;;;;;;;4.30;1.90;;;15.80;1.00;;;;;;5007055;28;20908;-76
2023/12/13 11:23:52;;;;;;;4.70;1.90;;;15.30;1.00;;;;;;5008582;28;20577;-77
2023/12/13 11:26:20;;;;;;;4.00;1.73;;;15.10;1.00;;;;;;5008010;28;20445;-77
2023/12/13 11:28:52;;;;;;;3.50;1.57;;;15.40;1.00;;;;;;5002916;28;20435;-76
2023/12/13 11:31:22;;;;;;;3.43;1.80;;;15.70;1.00;;;;;;5006837;28;20491;-77
2023/12/13 11:33:55;;;;;;;2.67;1.70;;;16.60;1.00;;;;;;5006464;28;20564;-77
2023/12/13 11:36:22;;;;;;;3.90;1.90;;;18.40;1.00;;;;;;5007142;28;20552;-77
2023/12/13 11:38:51;;;;;;;3.10;1.70;;;20.20;1.00;;;;;;5009660;28;20422;-77
2023/12/13 11:41:18;;;;;;;4.80;2.10;;;20.80;1.00;;;;;;5011706;28;20426;-76
2023/12/13 11:43:45;;;;;;;2.80;1.60;;;19.90;1.00;;;;;;5009685;28;20578;-76
2023/12/13 11:46:11;;;;;;;4.00;1.87;;;19.90;1.00;;;;;;5007296;28;20449;-77
2023/12/13 11:48:37;;;;;;;3.93;1.80;;;19.00;1.00;;;;;;5011633;28;20429;-77
2023/12/13 11:51:02;;;;;;;5.60;1.93;;;18.10;1.00;;;;;;5007093;28;20966;-77
2023/12/13 11:53:28;;;;;;;4.40;1.80;;;17.00;1.00;;;;;;5010686;28;20767;-77
2023/12/13 11:55:56;;;;;;;4.13;1.83;;;16.50;1.00;;;;;;5012314;28;20296;-76
2023/12/13 11:58:21;;;;;;;4.07;1.73;;;16.30;1.00;;;;;;5012575;28;20628;-75
2023/12/13 12:00:47;;;;;;;2.77;1.53;;;16.10;1.00;;;;;;5006375;28;20433;-76
2023/12/13 12:03:12;;;;;;;2.03;1.70;;;16.00;1.00;;;;;;5011278;28;20244;-76
2023/12/13 12:05:41;;;;;;;2.50;1.50;;;17.10;1.00;;;;;;5007892;28;20211;-76
2023/12/13 12:08:07;;;;;;;3.90;1.60;;;17.00;1.00;;;;;;5010060;28;20237;-77
2023/12/13 12:10:33;;;;;;;2.90;1.20;;;16.50;1.00;;;;;;5002731;28;20429;-77
2023/12/13 12:13:03;;;;;;;3.47;1.60;;;15.70;1.00;;;;;;5009212;28;20209;-76
2023/12/13 12:15:32;;;;;;;3.30;1.20;;;15.10;1.00;;;;;;5011297;28;20500;-74
2023/12/13 12:17:57;;;;;;;2.20;1.30;;;14.80;1.00;;;;;;5008533;28;20433;-74
2023/12/13 12:20:27;;;;;;;3.57;1.50;;;14.60;1.00;;;;;;5009221;28;20970;-75
2023/12/13 12:22:53;;;;;;;2.47;1.30;;;14.20;1.00;;;;;;5007941;28;20190;-76
2023/12/13 12:25:20;;;;;;;4.00;1.20;;;13.80;1.00;;;;;;5011838;28;20545;-76
2023/12/13 12:27:48;;;;;;;3.27;1.67;;;13.40;1.00;;;;;;5008910;28;20232;-77
2023/12/13 12:30:15;;;;;;;3.00;1.40;;;13.40;1.00;;;;;;5005602;28;20508;-76
2023/12/13 12:32:41;;;;;;;1.70;1.47;;;14.10;1.00;;;;;;5010613;28;20456;-75
2023/12/13 12:35:07;;;;;;;1.83;1.20;;;14.80;1.00;;;;;;5006649;28;21003;-76
2023/12/13 12:37:32;;;;;;;5.13;1.40;;;15.10;1.00;;;;;;5009952;28;20186;-76
2023/12/13 12:39:57;;;;;;;2.53;1.23;;;15.30;1.00;;;;;;5009558;28;20192;-75
2023/12/13 12:42:23;;;;;;;2.73;1.40;;;15.30;1.00;;;;;;5011667;28;20257;-76
2023/12/13 12:44:48;;;;;;;2.60;1.47;;;15.00;1.00;;;;;;5010267;28;20285;-76
2023/12/13 12:47:14;;;;;;;9.80;7.07;;;14.50;1.00;;;;;;5009065;28;20707;-77
2023/12/13 12:49:40;;;;;;;2.03;1.50;;;14.30;1.00;;;;;;5010634;28;20680;-77
2023/12/13 12:52:06;;;;;;;4.27;1.77;;;13.90;1.00;;;;;;5010609;28;20241;-77
2023/12/13 12:54:31;;;;;;;2.77;2.00;;;13.40;1.00;;;;;;5011109;28;20203;-76
2023/12/13 12:56:57;;;;;;;2.07;1.40;;;13.40;1.00;;;;;;5010841;28;20931;-75
2023/12/13 12:59:22;;;;;;;4.53;3.00;;;13.30;1.00;;;;;;5010902;28;20179;-75